createdAt,value
2022-09-04T00:02:38.197Z,96943.72
2022-09-04T00:05:13.531Z,96942.75
2022-09-04T00:08:03.372Z,96940.94
2022-09-04T00:10:40.716Z,96940.41
2022-09-04T00:13:15.477Z,96935.28
2022-09-04T00:15:47.878Z,96939.72
2022-09-04T00:18:27.721Z,96941.91
2022-09-04T00:21:01.968Z,96944.13
2022-09-04T00:23:36.172Z,96944.00
2022-09-04T00:26:14.893Z,96943.19
2022-09-04T00:28:51.013Z,96937.34
2022-09-04T00:31:26.825Z,96938.63
2022-09-04T00:34:04.562Z,96936.41
2022-09-04T00:36:32.230Z,96939.00
2022-09-04T00:39:09.285Z,96948.28
2022-09-04T00:42:01.210Z,96949.22
2022-09-04T00:44:59.363Z,96948.09
2022-09-04T00:47:43.582Z,96949.19
2022-09-04T00:50:29.319Z,96946.56
2022-09-04T00:53:10.578Z,96945.75
2022-09-04T00:55:56.950Z,96950.59
2022-09-04T00:58:48.149Z,96969.09
2022-09-04T01:01:23.553Z,96969.50
2022-09-04T01:04:00.503Z,96962.66
2022-09-04T01:06:36.020Z,96976.56
2022-09-04T01:09:25.265Z,96973.66
2022-09-04T01:12:07.198Z,96984.94
2022-09-04T01:14:43.051Z,96981.34
2022-09-04T01:17:18.858Z,96988.25
2022-09-04T01:20:01.415Z,96990.84
2022-09-04T01:22:49.422Z,96986.81
2022-09-04T01:25:38.390Z,96992.44
2022-09-04T01:28:14.225Z,96988.28
2022-09-04T01:30:47.198Z,96988.28
2022-09-04T01:33:24.502Z,96986.19
2022-09-04T01:36:01.730Z,96998.09
2022-09-04T01:38:37.864Z,96999.81
2022-09-04T01:41:14.056Z,96996.19
2022-09-04T01:43:43.864Z,97000.41
2022-09-04T01:46:27.680Z,96997.59
2022-09-04T01:49:04.461Z,96999.25
2022-09-04T01:51:40.631Z,96983.53
2022-09-04T01:54:26.038Z,96981.03
2022-09-04T01:57:09.068Z,96985.19
2022-09-04T01:59:53.891Z,96981.03
2022-09-04T02:02:29.669Z,96989.03
2022-09-04T02:05:06.347Z,96985.81
2022-09-04T02:07:44.813Z,97001.91
2022-09-04T02:10:23.429Z,97004.53
2022-09-04T02:13:07.672Z,96997.66
2022-09-04T02:15:44.431Z,96995.78
2022-09-04T02:18:24.309Z,96996.38
2022-09-04T02:20:59.509Z,97004.63
2022-09-04T02:23:36.976Z,97002.38
2022-09-04T02:26:12.164Z,96999.63
2022-09-04T02:28:52.348Z,96997.97
2022-09-04T02:31:31.262Z,97009.25
2022-09-04T02:34:06.866Z,97012.13
2022-09-04T02:36:41.519Z,97018.84
2022-09-04T02:39:24.031Z,97015.38
2022-09-04T02:42:00.490Z,97019.53
2022-09-04T02:44:43.377Z,97017.50
2022-09-04T02:47:24.183Z,97030.22
2022-09-04T02:50:03.676Z,97029.28
2022-09-04T02:52:52.312Z,97028.59
2022-09-04T02:55:31.349Z,97029.16
2022-09-04T02:58:11.037Z,97026.53
2022-09-04T03:00:46.914Z,97029.97
2022-09-04T03:03:21.553Z,97034.16
2022-09-04T03:05:56.976Z,97034.41
2022-09-04T03:08:34.406Z,97037.59
2022-09-04T03:11:13.481Z,97038.56
2022-09-04T03:13:50.584Z,97041.06
2022-09-04T03:16:24.901Z,97048.22
2022-09-04T03:19:08.692Z,97050.03
2022-09-04T03:21:46.414Z,97055.75
2022-09-04T03:24:22.595Z,97062.78
2022-09-04T03:26:53.287Z,97059.31
2022-09-04T03:29:30.743Z,97065.50
2022-09-04T03:32:16.305Z,97070.38
2022-09-04T03:34:54.266Z,97070.50
2022-09-04T03:37:40.363Z,97067.06
2022-09-04T03:40:19.054Z,97072.19
2022-09-04T03:43:01.167Z,97078.72
2022-09-04T03:45:40.050Z,97081.75
2022-09-04T03:48:19.316Z,97078.63
2022-09-04T03:50:58.101Z,97072.94
2022-09-04T03:53:34.564Z,97087.34
2022-09-04T03:56:23.994Z,97085.66
2022-09-04T03:59:02.586Z,97086.50
2022-09-04T04:01:41.903Z,97089.13
2022-09-04T04:04:44.313Z,97084.00
2022-09-04T04:07:24.929Z,97090.22
2022-09-04T04:10:02.773Z,97086.84
2022-09-04T04:13:03.062Z,97086.03
2022-09-04T04:15:44.886Z,97086.28
2022-09-04T04:18:45.243Z,97094.38
2022-09-04T04:21:25.284Z,97099.28
2022-09-04T04:24:18.399Z,97093.28
2022-09-04T04:26:58.851Z,97093.91
2022-09-04T04:29:56.010Z,97097.59
2022-09-04T04:32:33.756Z,97100.31
2022-09-04T04:35:23.778Z,97107.34
2022-09-04T04:38:04.322Z,97104.13
2022-09-04T04:40:47.826Z,97113.53
2022-09-04T04:43:26.984Z,97127.69
2022-09-04T04:46:03.643Z,97121.63
2022-09-04T04:49:01.325Z,97132.09
2022-09-04T04:51:42.871Z,97120.06
2022-09-04T04:54:26.840Z,97128.75
2022-09-04T04:57:04.485Z,97127.09
2022-09-04T04:59:41.099Z,97136.72
2022-09-04T05:02:19.241Z,97132.56
2022-09-04T05:04:56.441Z,97135.31
2022-09-04T05:07:31.020Z,97139.47
2022-09-04T05:10:05.257Z,97143.50
2022-09-04T05:12:52.349Z,97152.19
2022-09-04T05:15:28.469Z,97157.19
2022-09-04T05:18:00.944Z,97158.03
2022-09-04T05:20:41.413Z,97153.75
2022-09-04T05:23:28.965Z,97159.69
2022-09-04T05:26:07.260Z,97154.22
2022-09-04T05:28:48.777Z,97165.44
2022-09-04T05:31:24.714Z,97168.53
2022-09-04T05:34:00.932Z,97169.97
2022-09-04T05:36:41.552Z,97172.34
2022-09-04T05:39:20.173Z,97172.09
2022-09-04T05:42:06.608Z,97171.63
2022-09-04T05:44:57.728Z,97166.88
2022-09-04T05:47:37.311Z,97165.56
2022-09-04T05:50:47.194Z,97169.47
2022-09-04T05:53:39.157Z,97182.78
2022-09-04T05:56:30.913Z,97182.44
2022-09-04T05:59:16.970Z,97167.31
2022-09-04T06:02:18.247Z,97179.81
2022-09-04T06:05:16.021Z,97179.50
2022-09-04T06:07:55.662Z,97187.44
2022-09-04T06:10:30.893Z,97192.91
2022-09-04T06:13:20.533Z,97187.53
2022-09-04T06:16:03.727Z,97182.53
2022-09-04T06:18:58.728Z,97184.91
2022-09-04T06:21:48.893Z,97190.13
2022-09-04T06:24:33.794Z,97188.78
2022-09-04T06:27:24.250Z,97182.34
2022-09-04T06:30:16.496Z,97193.88
2022-09-04T06:33:25.395Z,97189.78
2022-09-04T06:36:20.416Z,97185.84
2022-09-04T06:39:11.863Z,97195.00
2022-09-04T06:41:51.524Z,97197.94
2022-09-04T06:44:31.880Z,97195.38
2022-09-04T06:47:11.734Z,97197.75
2022-09-04T06:49:50.961Z,97195.34
2022-09-04T06:52:30.214Z,97192.22
2022-09-04T06:55:01.426Z,97205.56
2022-09-04T06:57:55.556Z,97202.78
2022-09-04T07:00:25.342Z,97212.66
2022-09-04T07:03:20.784Z,97208.53
2022-09-04T07:05:59.531Z,97206.94
2022-09-04T07:08:40.177Z,97204.47
2022-09-04T07:11:19.538Z,97206.19
2022-09-04T07:13:59.869Z,97209.16
2022-09-04T07:16:42.082Z,97198.25
2022-09-04T07:20:06.264Z,97209.75
2022-09-04T07:23:17.300Z,97212.13
2022-09-04T07:25:57.855Z,97210.50
2022-09-04T07:28:50.503Z,97217.88
2022-09-04T07:31:23.856Z,97216.50
2022-09-04T07:33:59.640Z,97219.59
2022-09-04T07:36:34.853Z,97218.91
2022-09-04T07:39:13.156Z,97227.53
2022-09-04T07:41:49.907Z,97229.63
2022-09-04T07:44:24.502Z,97230.03
2022-09-04T07:46:59.368Z,97225.91
2022-09-04T07:49:35.002Z,97226.84
2022-09-04T07:52:11.103Z,97228.13
2022-09-04T07:54:53.733Z,97219.53
2022-09-04T07:57:38.844Z,97228.13
2022-09-04T08:00:07.029Z,97233.94
2022-09-04T08:03:14.089Z,97230.19
2022-09-04T08:05:48.022Z,97238.50
2022-09-04T08:08:55.846Z,97235.72
2022-09-04T08:12:03.682Z,97234.22
2022-09-04T08:14:52.803Z,97240.75
2022-09-04T08:17:49.571Z,97236.56
2022-09-04T08:20:33.435Z,97239.22
2022-09-04T08:23:17.616Z,97233.66
2022-09-04T08:25:55.197Z,97240.84
2022-09-04T08:28:45.936Z,97246.50
2022-09-04T08:31:24.023Z,97243.31
2022-09-04T08:34:10.237Z,97240.38
2022-09-04T08:36:46.587Z,97240.91
2022-09-04T08:39:27.636Z,97251.75
2022-09-04T08:42:39.454Z,97250.88
2022-09-04T08:45:35.126Z,97249.59
2022-09-04T08:48:46.764Z,97249.59
2022-09-04T08:51:49.980Z,97255.50
2022-09-04T08:54:44.676Z,97253.13
2022-09-04T08:57:48.446Z,97256.28
2022-09-04T09:00:17.486Z,97253.78
2022-09-04T09:03:26.604Z,97250.56
2022-09-04T09:06:40.207Z,97252.44
2022-09-04T09:09:50.072Z,97259.78
2022-09-04T09:12:41.910Z,97256.94
2022-09-04T09:15:23.460Z,97265.47
2022-09-04T09:18:02.095Z,97257.41
2022-09-04T09:20:33.056Z,97260.97
2022-09-04T09:23:20.260Z,97265.94
2022-09-04T09:26:07.919Z,97264.34
2022-09-04T09:29:12.103Z,97255.47
2022-09-04T09:32:16.555Z,97260.34
2022-09-04T09:35:20.867Z,97260.53
2022-09-04T09:38:07.093Z,97266.03
2022-09-04T09:41:18.045Z,97262.25
2022-09-04T09:44:24.036Z,97275.38
2022-09-04T09:47:16.619Z,97269.50
2022-09-04T09:50:14.199Z,97264.97
2022-09-04T09:53:23.896Z,97264.72
2022-09-04T09:56:15.953Z,97271.72
2022-09-04T09:59:28.764Z,97267.47
2022-09-04T10:02:25.259Z,97268.81
2022-09-04T10:05:19.254Z,97261.25
2022-09-04T10:08:12.749Z,97256.47
2022-09-04T10:11:25.594Z,97257.50
2022-09-04T10:14:30.888Z,97264.97
2022-09-04T10:17:26.246Z,97262.38
2022-09-04T10:20:26.516Z,97270.91
2022-09-04T10:23:27.191Z,97268.13
2022-09-04T10:26:33.179Z,97258.09
2022-09-04T10:29:30.432Z,97254.13
2022-09-04T10:32:45.908Z,97256.84
2022-09-04T10:35:24.092Z,97250.84
2022-09-04T10:38:07.400Z,97249.88
2022-09-04T10:40:50.637Z,97248.41
2022-09-04T10:43:39.303Z,97247.44
2022-09-04T10:46:10.452Z,97250.81
2022-09-04T10:49:24.927Z,97253.47
2022-09-04T10:52:25.931Z,97262.59
2022-09-04T10:55:18.587Z,97252.47
2022-09-04T10:58:05.295Z,97243.22
2022-09-04T11:00:40.086Z,97236.75
2022-09-04T11:03:36.130Z,97244.53
2022-09-04T11:06:38.286Z,97244.00
2022-09-04T11:09:33.820Z,97245.03
2022-09-04T11:12:31.900Z,97246.66
2022-09-04T11:15:25.272Z,97239.56
2022-09-04T11:18:22.944Z,97237.72
2022-09-04T11:21:33.088Z,97236.56
2022-09-04T11:24:40.009Z,97238.22
2022-09-04T11:27:43.486Z,97233.72
2022-09-04T11:30:17.086Z,97233.72
2022-09-04T11:33:20.338Z,97217.81
2022-09-04T11:36:20.959Z,97222.78
2022-09-04T11:39:35.026Z,97227.06
2022-09-04T11:42:25.948Z,97228.72
2022-09-04T11:45:37.059Z,97231.56
2022-09-04T11:48:43.740Z,97228.09
2022-09-04T11:51:32.030Z,97227.91
2022-09-04T11:54:19.809Z,97225.59
2022-09-04T11:57:16.476Z,97221.31
2022-09-04T12:00:02.457Z,97215.00
2022-09-04T12:03:20.445Z,97214.78
2022-09-04T12:06:12.362Z,97220.88
2022-09-04T12:09:08.306Z,97215.25
2022-09-04T12:12:17.095Z,97211.94
2022-09-04T12:15:10.113Z,97197.50
2022-09-04T12:18:08.154Z,97192.03
2022-09-04T12:21:07.151Z,97186.25
2022-09-04T12:24:04.542Z,97189.72
2022-09-04T12:27:04.728Z,97186.97
2022-09-04T12:30:02.409Z,97192.06
2022-09-04T12:33:08.477Z,97205.00
2022-09-04T12:36:12.640Z,97210.97
2022-09-04T12:38:46.929Z,97217.78
2022-09-04T12:41:17.836Z,97213.66
2022-09-04T12:44:00.189Z,97226.59
2022-09-04T12:46:45.323Z,97234.97
2022-09-04T12:49:38.474Z,97248.44
2022-09-04T12:52:13.543Z,97246.31
2022-09-04T12:54:43.834Z,97254.81
2022-09-04T12:57:25.753Z,97251.31
2022-09-04T13:00:05.997Z,97267.41
2022-09-04T13:02:50.065Z,97261.53
2022-09-04T13:05:32.689Z,97269.44
2022-09-04T13:08:12.264Z,97263.56
2022-09-04T13:10:52.721Z,97260.75
2022-09-04T13:13:28.824Z,97267.47
2022-09-04T13:16:01.869Z,97286.78
2022-09-04T13:18:51.311Z,97287.00
2022-09-04T13:21:27.623Z,97285.59
2022-09-04T13:24:12.530Z,97296.81
2022-09-04T13:26:46.048Z,97300.63
2022-09-04T13:29:25.535Z,97304.50
2022-09-04T13:32:04.485Z,97299.97
2022-09-04T13:34:48.614Z,97290.31
2022-09-04T13:37:24.994Z,97291.84
2022-09-04T13:40:21.965Z,97283.50
2022-09-04T13:43:26.037Z,97287.00
2022-09-04T13:45:54.227Z,97282.97
2022-09-04T13:48:33.701Z,97282.66
2022-09-04T13:51:13.499Z,97289.22
2022-09-04T13:53:58.177Z,97300.19
2022-09-04T13:56:31.799Z,97302.41
2022-09-04T13:59:02.710Z,97305.13
2022-09-04T14:01:33.653Z,97312.22
2022-09-04T14:04:05.626Z,97317.75
2022-09-04T14:06:37.633Z,97330.69
2022-09-04T14:09:06.342Z,97334.19
2022-09-04T14:11:49.308Z,97333.50
2022-09-04T14:14:58.613Z,97345.19
2022-09-04T14:17:35.607Z,97355.34
2022-09-04T14:20:12.655Z,97354.34
2022-09-04T14:22:49.454Z,97364.00
2022-09-04T14:25:30.356Z,97356.88
2022-09-04T14:28:02.042Z,97354.06
2022-09-04T14:30:35.389Z,97355.41
2022-09-04T14:33:24.407Z,97357.06
2022-09-04T14:36:07.874Z,97354.25
2022-09-04T14:39:01.018Z,97358.09
2022-09-04T14:41:46.359Z,97357.78
2022-09-04T14:44:27.110Z,97359.22
2022-09-04T14:47:03.901Z,97366.31
2022-09-04T14:49:32.778Z,97368.75
2022-09-04T14:52:10.148Z,97370.53
2022-09-04T14:54:40.783Z,97363.84
2022-09-04T14:57:18.223Z,97375.88
2022-09-04T14:59:50.985Z,97383.41
2022-09-04T15:02:26.605Z,97381.59
2022-09-04T15:05:01.659Z,97379.75
2022-09-04T15:07:50.231Z,97382.81
2022-09-04T15:10:23.485Z,97389.09
2022-09-04T15:12:56.112Z,97389.75
2022-09-04T15:15:30.096Z,97389.59
2022-09-04T15:18:10.621Z,97391.44
2022-09-04T15:20:45.942Z,97400.19
2022-09-04T15:23:20.233Z,97399.38
2022-09-04T15:25:59.786Z,97410.53
2022-09-04T15:28:32.304Z,97405.72
2022-09-04T15:31:10.921Z,97411.16
2022-09-04T15:33:41.543Z,97409.63
2022-09-04T15:36:15.156Z,97421.72
2022-09-04T15:38:49.480Z,97411.34
2022-09-04T15:41:27.191Z,97397.84
2022-09-04T15:44:00.906Z,97391.59
2022-09-04T15:46:41.558Z,97388.31
2022-09-04T15:49:33.908Z,97395.94
2022-09-04T15:52:18.955Z,97392.69
2022-09-04T15:55:09.955Z,97404.78
2022-09-04T15:57:51.988Z,97407.13
2022-09-04T16:00:25.742Z,97406.56
2022-09-04T16:03:00.668Z,97415.13
2022-09-04T16:05:39.064Z,97414.63
2022-09-04T16:08:22.287Z,97408.81
2022-09-04T16:10:56.523Z,97407.75
2022-09-04T16:13:46.077Z,97408.34
2022-09-04T16:16:19.409Z,97407.84
2022-09-04T16:19:01.300Z,97419.84
2022-09-04T16:21:39.794Z,97415.69
2022-09-04T16:24:13.878Z,97425.28
2022-09-04T16:26:41.220Z,97425.59
2022-09-04T16:29:26.261Z,97414.34
2022-09-04T16:31:55.905Z,97421.75
2022-09-04T16:34:27.750Z,97420.91
2022-09-04T16:36:58.966Z,97427.19
2022-09-04T16:39:31.858Z,97420.41
2022-09-04T16:42:09.820Z,97421.38
2022-09-04T16:44:43.606Z,97428.63
2022-09-04T16:47:19.810Z,97432.03
2022-09-04T16:49:56.916Z,97429.84
2022-09-04T16:52:58.607Z,97441.84
2022-09-04T16:55:46.719Z,97434.66
2022-09-04T16:58:21.270Z,97430.81
2022-09-04T17:01:13.762Z,97439.19
2022-09-04T17:04:12.937Z,97449.06
2022-09-04T17:06:48.930Z,97445.22
2022-09-04T17:09:23.037Z,97460.38
2022-09-04T17:11:55.899Z,97448.47
2022-09-04T17:14:31.871Z,97459.31
2022-09-04T17:17:30.841Z,97454.88
2022-09-04T17:20:02.384Z,97471.09
2022-09-04T17:28:04.877Z,97472.09
2022-09-04T17:29:10.938Z,97471.16
2022-09-04T17:29:15.426Z,97468.25
2022-09-04T17:31:33.734Z,97471.63
2022-09-04T17:40:06.225Z,97477.03
2022-09-04T17:40:48.836Z,97481.75
2022-09-04T17:40:53.995Z,97477.31
2022-09-04T17:42:57.099Z,97487.63
2022-09-04T17:45:51.293Z,97483.19
2022-09-04T17:48:22.238Z,97489.16
2022-09-04T17:50:54.821Z,97496.25
2022-09-04T17:53:34.135Z,97502.22
2022-09-04T17:56:07.948Z,97507.38
2022-09-04T17:58:43.666Z,97510.84
2022-09-04T18:01:17.988Z,97511.38
2022-09-04T18:04:20.025Z,97523.31
2022-09-04T18:06:52.331Z,97523.31
2022-09-04T18:09:27.602Z,97512.31
2022-09-04T18:12:04.508Z,97529.66
2022-09-04T18:14:40.485Z,97532.25
2022-09-04T18:17:17.797Z,97521.16
2022-09-04T18:19:47.100Z,97535.16
2022-09-04T18:22:33.718Z,97533.53
2022-09-04T18:25:17.118Z,97541.00
2022-09-04T18:28:11.600Z,97539.72
2022-09-04T18:37:05.561Z,97551.88
2022-09-04T18:37:18.211Z,97552.88
2022-09-04T18:37:25.321Z,97548.78
2022-09-04T18:39:40.101Z,97559.50
2022-09-04T18:50:20.218Z,97563.25
2022-09-04T18:50:22.959Z,97559.06
2022-09-04T18:50:43.932Z,97555.03
2022-09-04T18:51:18.355Z,97553.91
2022-09-04T18:53:48.931Z,97567.44
2022-09-04T18:56:25.098Z,97554.66
2022-09-04T18:59:01.261Z,97571.41
2022-09-04T19:01:40.869Z,97570.13
2022-09-04T19:04:38.376Z,97575.34
2022-09-04T19:07:09.975Z,97575.16
2022-09-04T19:09:58.194Z,97573.16
2022-09-04T19:12:47.707Z,97574.09
2022-09-04T19:15:37.678Z,97576.88
2022-09-04T19:18:16.058Z,97587.38
2022-09-04T19:20:49.084Z,97580.59
2022-09-04T19:23:27.347Z,97578.97
2022-09-04T19:26:00.180Z,97578.34
2022-09-04T19:28:52.902Z,97582.78
2022-09-04T19:31:30.782Z,97595.34
2022-09-04T19:34:04.470Z,97595.84
2022-09-04T19:36:39.506Z,97597.75
2022-09-04T19:45:53.509Z,97596.34
2022-09-04T19:46:00.850Z,97593.97
2022-09-04T19:46:17.656Z,97581.19
2022-09-04T19:48:16.380Z,97586.38
2022-09-04T19:53:23.109Z,97591.13
2022-09-04T19:53:49.185Z,97589.38
2022-09-04T19:56:29.095Z,97583.03
2022-09-04T19:59:04.214Z,97572.41
2022-09-04T20:01:43.927Z,97583.28
2022-09-04T20:04:21.839Z,97584.22
2022-09-04T20:06:53.876Z,97583.06
2022-09-04T20:09:27.901Z,97584.13
2022-09-04T20:11:59.660Z,97584.13
2022-09-04T20:14:31.684Z,97582.69
2022-09-04T20:17:17.619Z,97585.09
2022-09-04T20:19:48.694Z,97580.34
2022-09-04T20:22:30.729Z,97589.41
2022-09-04T20:25:13.640Z,97582.50
2022-09-04T20:27:44.495Z,97588.69
2022-09-04T20:30:17.848Z,97584.38
2022-09-04T20:32:53.101Z,97579.84
2022-09-04T20:35:33.368Z,97579.84
2022-09-04T20:38:06.154Z,97588.72
2022-09-04T20:40:44.659Z,97589.66
2022-09-04T20:43:24.656Z,97588.72
2022-09-04T20:49:12.178Z,97583.69
2022-09-04T20:52:52.242Z,97585.97
2022-09-04T20:52:53.307Z,97592.72
2022-09-04T20:55:07.686Z,97600.13
2022-09-04T21:01:35.126Z,97614.66
2022-09-04T21:03:19.488Z,97604.28
2022-09-04T21:03:57.093Z,97611.22
2022-09-04T21:06:33.598Z,97613.38
2022-09-04T21:09:18.572Z,97614.31
2022-09-04T21:11:48.967Z,97610.84
2022-09-04T21:14:21.585Z,97620.38
2022-09-04T21:17:34.284Z,97619.09
2022-09-04T21:20:48.618Z,97618.84
2022-09-04T21:24:03.036Z,97629.22
2022-09-04T21:26:48.976Z,97625.88
2022-09-04T21:29:37.406Z,97629.47
2022-09-04T21:32:39.510Z,97633.03
2022-09-04T21:35:12.801Z,97628.13
2022-09-04T21:37:50.886Z,97628.59
2022-09-04T21:41:05.740Z,97635.00
2022-09-04T21:44:22.385Z,97634.31
2022-09-04T21:47:08.521Z,97641.81
2022-09-04T21:50:00.942Z,97641.53
2022-09-04T21:52:55.989Z,97641.97
2022-09-04T21:56:33.287Z,97633.72
2022-09-04T22:02:43.088Z,97635.75
2022-09-04T22:04:36.113Z,97634.63
2022-09-04T22:10:39.891Z,97638.91
2022-09-04T22:13:30.856Z,97634.72
2022-09-04T22:13:48.023Z,97633.78
2022-09-04T22:16:06.750Z,97628.63
2022-09-04T22:19:11.500Z,97621.72
2022-09-04T22:22:03.482Z,97625.16
2022-09-04T22:25:00.953Z,97627.19
2022-09-04T22:28:11.033Z,97629.91
2022-09-04T22:30:58.561Z,97621.94
2022-09-04T22:34:15.539Z,97624.66
2022-09-04T22:37:25.385Z,97630.13
2022-09-04T22:40:25.125Z,97629.53
2022-09-04T22:43:10.465Z,97627.94
2022-09-04T22:46:06.210Z,97628.50
2022-09-04T22:49:12.411Z,97634.69
2022-09-04T22:52:13.914Z,97632.16
2022-09-04T22:55:13.078Z,97640.22
2022-09-04T22:58:08.493Z,97636.88
2022-09-04T23:00:58.558Z,97643.06
2022-09-04T23:03:41.940Z,97644.25
2022-09-04T23:08:34.565Z,97649.28
2022-09-04T23:13:46.718Z,97648.47
2022-09-04T23:15:43.444Z,97651.19
2022-09-04T23:22:36.800Z,97648.66
2022-09-04T23:26:35.820Z,97653.09
2022-09-04T23:26:50.539Z,97650.97
2022-09-04T23:27:50.934Z,97654.53
2022-09-04T23:30:25.148Z,97647.09
2022-09-04T23:33:38.972Z,97650.06
2022-09-04T23:36:55.963Z,97648.38
2022-09-04T23:39:46.818Z,97644.09
2022-09-04T23:42:30.671Z,97645.16
2022-09-04T23:45:21.494Z,97649.06
2022-09-04T23:48:16.653Z,97647.25
2022-09-04T23:50:54.379Z,97648.31
2022-09-04T23:53:31.532Z,97647.06
2022-09-04T23:56:24.689Z,97636.91
2022-09-04T23:59:05.113Z,97635.94
